Time;durP1;ratioP1;P1;durP2;ratioP2;P2;SDS_P1;SDS_P2;PMS_P1;PMS_P2;Temp;Humidity;BMP_temperature;BMP_pressure;BME280_temperature;BME280_humidity;BME280_pressure;Samples;Min_cycle;Max_cycle;Signal;HPM_P1;HPM_P2
2021/08/24 00:00:31;;;;;;;;;;;;;;;17.26;100.00;100426.56;1644583;86;20644;-81
2021/08/24 00:02:57;;;;;;;;;;;;;;;17.27;100.00;100434.38;1644535;86;20682;-81
2021/08/24 00:05:25;;;;;;;;;;;;;;;17.16;100.00;100421.05;1647118;86;20177;-82
2021/08/24 00:07:53;;;;;;;;;;;;;;;17.02;100.00;100425.96;1625336;86;20495;-82
2021/08/24 00:10:18;;;;;;;;;;;;;;;17.07;100.00;100427.53;1644246;86;20130;-82
2021/08/24 00:12:44;;;;;;;;;;;;;;;17.14;100.00;100425.77;1647844;85;20280;-81
2021/08/24 00:15:11;;;;;;;;;;;;;;;17.16;100.00;100427.72;1644025;85;21086;-80
2021/08/24 00:17:36;;;;;;;;;;;;;;;17.12;100.00;100425.14;1645335;86;20259;-82
2021/08/24 00:20:02;;;;;;;;;;;;;;;16.99;100.00;100427.67;1646214;86;20205;-82
2021/08/24 00:22:29;;;;;;;;;;;;;;;16.89;100.00;100430.67;1646706;86;20232;-80
2021/08/24 00:24:55;;;;;;;;;;;;;;;17.02;100.00;100431.30;1650757;84;20232;-81
2021/08/24 00:27:20;;;;;;;;;;;;;;;17.04;100.00;100435.92;1646046;85;21156;-81
2021/08/24 00:29:46;;;;;;;;;;;;;;;17.02;100.00;100440.64;1647608;85;20280;-81
2021/08/24 00:32:11;;;;;;;;;;;;;;;17.09;100.00;100446.87;1649528;86;20146;-81
2021/08/24 00:34:39;;;;;;;;;;;;;;;17.15;100.00;100442.09;1647484;86;21757;-80
2021/08/24 00:37:04;;;;;;;;;;;;;;;17.13;100.00;100448.12;1650282;86;20194;-81
2021/08/24 00:39:30;;;;;;;;;;;;;;;17.17;100.00;100449.39;1652030;85;21083;-81
2021/08/24 00:41:56;;;;;;;;;;;;;;;17.09;100.00;100455.36;1650222;85;20137;-81
2021/08/24 00:44:21;;;;;;;;;;;;;;;16.98;100.00;100450.03;1649508;85;20161;-80
2021/08/24 00:46:48;;;;;;;;;;;;;;;16.92;100.00;100444.12;1651149;85;20178;-80
2021/08/24 00:49:21;;;;;;;;;;;;;;;16.94;100.00;100446.11;1650445;86;20203;-79
2021/08/24 00:51:49;;;;;;;;;;;;;;;17.02;100.00;100449.97;1651020;85;21296;-82
2021/08/24 00:54:15;;;;;;;;;;;;;;;17.02;100.00;100445.97;1650925;86;20158;-82
2021/08/24 00:56:46;;;;;;;;;;;;;;;17.05;100.00;100444.25;1650752;85;20153;-81
2021/08/24 00:59:11;;;;;;;;;;;;;;;17.04;100.00;100451.93;1649721;85;21592;-81
2021/08/24 01:01:37;;;;;;;;;;;;;;;17.07;100.00;100447.55;1649811;86;20157;-83
2021/08/24 01:04:02;;;;;;;;;;;;;;;16.99;100.00;100457.02;1651348;84;21134;-82
2021/08/24 01:06:39;;;;;;;;;;;;;;;16.99;100.00;100457.02;1650326;85;20377;-82
2021/08/24 01:09:09;;;;;;;;;;;;;;;17.03;100.00;100455.64;1647548;86;20206;-81
2021/08/24 01:12:00;;;;;;;;;;;;;;;16.97;100.00;100452.40;1646370;85;20178;-83
2021/08/24 01:14:47;;;;;;;;;;;;;;;16.99;100.00;100465.03;1647841;85;20185;-78
2021/08/24 01:17:21;;;;;;;;;;;;;;;16.79;100.00;100458.94;1651268;86;20551;-83
2021/08/24 01:19:53;;;;;;;;;;;;;;;16.72;100.00;100462.06;1624007;86;20470;-81
2021/08/24 01:22:23;;;;;;;;;;;;;;;16.82;100.00;100465.23;1647664;86;20214;-83
2021/08/24 01:24:55;;;;;;;;;;;;;;;16.84;100.00;100467.22;1649016;85;20777;-83
2021/08/24 01:27:30;;;;;;;;;;;;;;;16.75;100.00;100465.69;1650601;84;20230;-82
2021/08/24 01:30:16;;;;;;;;;;;;;;;16.80;100.00;100466.45;1660865;84;21991;-82
2021/08/24 01:32:58;;;;;;;;;;;;;;;16.74;100.00;100473.36;1662237;84;20208;-79
2021/08/24 01:35:27;;;;;;;;;;;;;;;16.81;100.00;100470.27;1648899;84;20129;-82
2021/08/24 01:38:11;;;;;;;;;;;;;;;16.78;100.00;100473.31;1667444;84;20220;-80
2021/08/24 01:40:58;;;;;;;;;;;;;;;16.81;100.00;100468.09;1666181;85;20557;-78
2021/08/24 01:43:47;;;;;;;;;;;;;;;16.87;100.00;100468.70;1665564;84;21281;-81
2021/08/24 01:46:25;;;;;;;;;;;;;;;16.97;100.00;100463.07;1660336;85;20216;-81
2021/08/24 01:48:53;;;;;;;;;;;;;;;16.99;100.00;100465.03;1666576;85;20185;-80
2021/08/24 01:51:21;;;;;;;;;;;;;;;16.98;100.00;100460.70;1661138;84;20169;-83
2021/08/24 01:53:54;;;;;;;;;;;;;;;16.95;100.00;100458.41;1665238;85;20242;-83
2021/08/24 01:56:22;;;;;;;;;;;;;;;16.99;100.00;100463.70;1650398;85;21211;-82
2021/08/24 01:58:53;;;;;;;;;;;;;;;17.00;100.00;100458.69;1664045;85;20743;-83
2021/08/24 02:01:21;;;;;;;;;;;;;;;16.99;100.00;100459.69;1667311;84;20136;-82
2021/08/24 02:03:53;;;;;;;;;;;;;;;16.99;100.00;100453.02;1666325;84;20155;-82
2021/08/24 02:06:34;;;;;;;;;;;;;;;16.97;100.00;100451.06;1665356;85;20229;-82
2021/08/24 02:09:02;;;;;;;;;;;;;;;16.97;100.00;100445.73;1664139;84;20948;-82
2021/08/24 02:11:28;;;;;;;;;;;;;;;17.00;100.00;100456.02;1667660;85;20245;-82
2021/08/24 02:13:53;;;;;;;;;;;;;;;16.98;100.00;100455.36;1663132;84;20212;-83
2021/08/24 02:16:21;;;;;;;;;;;;;;;16.93;100.00;100456.45;1658571;85;20153;-82
2021/08/24 02:18:50;;;;;;;;;;;;;;;16.92;100.00;100450.79;1663135;84;20213;-82
2021/08/24 02:21:19;;;;;;;;;;;;;;;16.83;100.00;100454.89;1660677;85;22585;-82
2021/08/24 02:23:47;;;;;;;;;;;;;;;16.82;100.00;100452.41;1666627;84;20197;-82
2021/08/24 02:26:13;;;;;;;;;;;;;;;16.74;100.00;100448.02;1648754;86;20141;-81
2021/08/24 02:28:40;;;;;;;;;;;;;;;16.81;100.00;100452.93;1642939;85;20682;-81
2021/08/24 02:31:19;;;;;;;;;;;;;;;16.88;100.00;100444.20;1659678;85;20182;-82
2021/08/24 02:33:49;;;;;;;;;;;;;;;16.84;100.00;100449.89;1656632;85;21422;-83
2021/08/24 02:36:15;;;;;;;;;;;;;;;16.86;100.00;100451.88;1652364;86;21240;-82
2021/08/24 02:38:43;;;;;;;;;;;;;;;16.75;100.00;100450.17;1653914;85;20173;-80
2021/08/24 02:41:19;;;;;;;;;;;;;;;16.74;100.00;100452.03;1657820;85;20227;-83
2021/08/24 02:44:05;;;;;;;;;;;;;;;16.83;100.00;100442.89;1659391;85;20201;-81
2021/08/24 02:46:35;;;;;;;;;;;;;;;16.88;100.00;100441.53;1655390;85;21296;-81
2021/08/24 02:49:04;;;;;;;;;;;;;;;16.93;100.00;100441.78;1655255;84;20208;-80
2021/08/24 02:51:31;;;;;;;;;;;;;;;16.92;100.00;100440.12;1657654;85;20204;-82
2021/08/24 02:54:14;;;;;;;;;;;;;;;16.90;100.00;100438.16;1640098;86;20506;-81
2021/08/24 02:56:40;;;;;;;;;;;;;;;16.92;100.00;100442.78;1655176;86;21000;-81
2021/08/24 02:59:05;;;;;;;;;;;;;;;16.92;100.00;100443.63;1658035;85;21107;-81
2021/08/24 03:01:31;;;;;;;;;;;;;;;16.89;100.00;100438.68;1655241;84;20184;-81
2021/08/24 03:03:56;;;;;;;;;;;;;;;16.92;100.00;100442.78;1658915;85;20259;-82
2021/08/24 03:06:22;;;;;;;;;;;;;;;16.86;100.00;100436.39;1652957;86;21157;-81
2021/08/24 03:08:50;;;;;;;;;;;;;;;16.89;100.00;100441.83;1655911;85;20288;-82
2021/08/24 03:11:19;;;;;;;;;;;;;;;16.90;100.00;100439.49;1654387;85;21108;-81
2021/08/24 03:14:02;;;;;;;;;;;;;;;16.93;100.00;100440.45;1657180;85;20227;-81
2021/08/24 03:16:42;;;;;;;;;;;;;;;16.92;100.00;100446.30;1659290;85;20217;-80
2021/08/24 03:19:20;;;;;;;;;;;;;;;16.90;100.00;100444.83;1657012;84;20465;-79
2021/08/24 03:21:46;;;;;;;;;;;;;;;16.90;100.00;100448.83;1644237;86;20505;-81
2021/08/24 03:24:13;;;;;;;;;;;;;;;16.88;100.00;100453.54;1637386;86;21164;-81
2021/08/24 03:26:40;;;;;;;;;;;;;;;16.83;100.00;100450.89;1655358;86;20698;-82
2021/08/24 03:29:08;;;;;;;;;;;;;;;16.84;100.00;100452.55;1652725;84;20472;-81
2021/08/24 03:31:34;;;;;;;;;;;;;;;16.87;100.00;100451.36;1644554;85;20211;-81
2021/08/24 03:34:00;;;;;;;;;;;;;;;16.90;100.00;100458.98;1647802;86;20153;-81
2021/08/24 03:36:25;;;;;;;;;;;;;;;16.92;100.00;100453.45;1646098;86;21186;-81
2021/08/24 03:38:51;;;;;;;;;;;;;;;16.95;100.00;100461.08;1647408;86;20365;-80
2021/08/24 03:41:16;;;;;;;;;;;;;;;17.00;100.00;100464.02;1645972;86;20141;-81
2021/08/24 03:43:42;;;;;;;;;;;;;;;16.96;100.00;100462.73;1645090;86;20162;-81
2021/08/24 03:46:07;;;;;;;;;;;;;;;16.94;100.00;100462.93;1647283;85;20182;-82
2021/08/24 03:48:33;;;;;;;;;;;;;;;16.97;100.00;100465.73;1645371;86;21154;-81
2021/08/24 03:50:59;;;;;;;;;;;;;;;16.99;100.00;100470.36;1649426;85;20205;-81
2021/08/24 03:53:25;;;;;;;;;;;;;;;17.00;100.00;100466.69;1645473;85;20169;-79
2021/08/24 03:55:51;;;;;;;;;;;;;;;17.01;100.00;100468.33;1628842;86;20150;-82
2021/08/24 03:58:16;;;;;;;;;;;;;;;17.04;100.00;100471.95;1647060;85;20255;-81
2021/08/24 04:00:43;;;;;;;;;;;;;;;17.03;100.00;100476.98;1646082;85;21882;-81
2021/08/24 04:03:09;;;;;;;;;;;;;;;16.97;100.00;100473.74;1641564;85;21040;-82
2021/08/24 04:05:35;;;;;;;;;;;;;;;16.99;100.00;100481.03;1624812;86;20188;-82
2021/08/24 04:08:00;;;;;;;;;;;;;;;16.98;100.00;100482.05;1644671;86;20731;-82
2021/08/24 04:10:26;;;;;;;;;;;;;;;16.93;100.00;100484.46;1646939;85;20145;-81
2021/08/24 04:12:51;;;;;;;;;;;;;;;16.95;100.00;100478.42;1647254;86;21956;-81
2021/08/24 04:15:19;;;;;;;;;;;;;;;16.92;100.00;100480.98;1648333;86;20496;-81
2021/08/24 04:17:44;;;;;;;;;;;;;;;16.93;100.00;100472.46;1646438;85;20142;-80
2021/08/24 04:20:12;;;;;;;;;;;;;;;16.90;100.00;100479.51;1647954;85;20134;-81
2021/08/24 04:22:40;;;;;;;;;;;;;;;16.85;100.00;100466.70;1645435;85;20178;-81
2021/08/24 04:25:05;;;;;;;;;;;;;;;16.86;100.00;100471.06;1645275;86;21215;-80
2021/08/24 04:27:31;;;;;;;;;;;;;;;16.87;100.00;100470.03;1645817;85;20212;-81
2021/08/24 04:29:57;;;;;;;;;;;;;;;16.90;100.00;100466.17;1653719;85;20152;-82
2021/08/24 04:32:26;;;;;;;;;;;;;;;16.92;100.00;100469.46;1663337;84;20149;-81
2021/08/24 04:34:52;;;;;;;;;;;;;;;16.93;100.00;100471.13;1668173;84;21075;-81
2021/08/24 04:37:18;;;;;;;;;;;;;;;16.86;100.00;100475.06;1644251;85;21041;-80
2021/08/24 04:39:43;;;;;;;;;;;;;;;16.86;100.00;100474.55;1661772;85;20181;-82
2021/08/24 04:42:09;;;;;;;;;;;;;;;16.81;100.00;100474.76;1661321;85;20528;-81
2021/08/24 04:44:34;;;;;;;;;;;;;;;16.88;100.00;100474.87;1666599;85;20125;-81
2021/08/24 04:47:00;;;;;;;;;;;;;;;16.97;100.00;100471.08;1659835;85;20501;-82
2021/08/24 04:49:26;;;;;;;;;;;;;;;16.93;100.00;100468.45;1668600;84;21052;-81
2021/08/24 04:51:51;;;;;;;;;;;;;;;16.96;100.00;100474.23;1661579;84;20133;-82
2021/08/24 04:54:17;;;;;;;;;;;;;;;16.93;100.00;100476.46;1662679;84;20465;-83
2021/08/24 04:56:43;;;;;;;;;;;;;;;16.96;100.00;100472.08;1659353;85;20879;-80
2021/08/24 04:59:11;;;;;;;;;;;;;;;17.02;100.00;100467.31;1669583;85;20205;-83
2021/08/24 05:01:36;;;;;;;;;;;;;;;16.96;100.00;100460.08;1662430;84;21854;-87
2021/08/24 05:04:02;;;;;;;;;;;;;;;16.76;100.00;100460.66;1664318;84;20172;-86
2021/08/24 05:06:28;;;;;;;;;;;;;;;16.73;100.00;100462.36;1663484;84;20300;-86
2021/08/24 05:08:55;;;;;;;;;;;;;;;16.60;100.00;100464.91;1662741;84;20176;-87
2021/08/24 05:11:21;;;;;;;;;;;;;;;16.56;100.00;100466.28;1652706;85;20212;-85
2021/08/24 05:13:47;;;;;;;;;;;;;;;16.51;100.00;100466.36;1669724;84;21184;-87
2021/08/24 05:16:12;;;;;;;;;;;;;;;16.48;100.00;100469.40;1663533;84;20247;-88
2021/08/24 05:18:38;;;;;;;;;;;;;;;16.43;100.00;100469.11;1663833;84;20133;-89
2021/08/24 05:21:05;;;;;;;;;;;;;;;16.32;100.00;100466.94;1660952;85;20156;-89
2021/08/24 05:23:31;;;;;;;;;;;;;;;16.35;100.00;100469.23;1663606;84;20207;-88
2021/08/24 05:25:57;;;;;;;;;;;;;;;16.33;100.00;100473.92;1662410;84;21177;-92
2021/08/24 05:28:22;;;;;;;;;;;;;;;16.30;100.00;100480.44;1663515;85;20299;-86
2021/08/24 05:30:48;;;;;;;;;;;;;;;16.18;100.00;100481.11;1664126;85;20181;-84
2021/08/24 05:33:13;;;;;;;;;;;;;;;16.24;100.00;100479.03;1670371;85;20156;-86
2021/08/24 05:35:39;;;;;;;;;;;;;;;16.13;100.00;100474.48;1664433;85;20189;-86
2021/08/24 05:38:04;;;;;;;;;;;;;;;16.09;100.00;100483.84;1664309;84;21041;-88
2021/08/24 05:40:30;;;;;;;;;;;;;;;16.07;99.53;100488.55;1663931;84;20145;-93
2021/08/24 05:42:57;;;;;;;;;;;;;;;16.02;100.00;100490.94;1663976;85;20133;-90
2021/08/24 05:45:23;;;;;;;;;;;;;;;15.98;99.90;100493.12;1652659;84;20206;-92
2021/08/24 05:47:48;;;;;;;;;;;;;;;15.96;99.93;100497.00;1662902;84;21853;-91
2021/08/24 05:50:14;;;;;;;;;;;;;;;15.87;100.00;100492.25;1660961;84;21093;-93
2021/08/24 05:52:40;;;;;;;;;;;;;;;15.88;100.00;100498.39;1667362;85;20148;-90
2021/08/24 05:55:06;;;;;;;;;;;;;;;15.78;99.76;100504.84;1666960;85;20710;-89
2021/08/24 05:57:31;;;;;;;;;;;;;;;15.70;100.00;100506.20;1661292;85;20160;-89
2021/08/24 05:59:57;;;;;;;;;;;;;;;15.59;100.00;100515.96;1666489;84;20794;-92
2021/08/24 06:02:22;;;;;;;;;;;;;;;15.58;100.00;100526.27;1640186;85;21057;-89
2021/08/24 06:04:48;;;;;;;;;;;;;;;15.53;100.00;100531.31;1660051;85;20128;-93
2021/08/24 06:07:14;;;;;;;;;;;;;;;15.62;100.00;100540.38;1665125;84;20140;-90
2021/08/24 06:09:39;;;;;;;;;;;;;;;15.60;99.66;100540.25;1667877;84;20156;-89
2021/08/24 06:12:05;;;;;;;;;;;;;;;15.56;100.00;100533.62;1664070;85;20718;-91
2021/08/24 06:14:31;;;;;;;;;;;;;;;15.65;99.89;100540.53;1662847;84;21263;-92
2021/08/24 06:16:58;;;;;;;;;;;;;;;15.63;99.98;100538.56;1661328;84;20143;-91
2021/08/24 06:19:27;;;;;;;;;;;;;;;15.61;100.00;100542.73;1667408;84;20174;-91
2021/08/24 06:21:54;;;;;;;;;;;;;;;15.61;100.00;100545.88;1669086;84;20200;-91
2021/08/24 06:24:22;;;;;;;;;;;;;;;15.59;100.00;100547.39;1665871;84;20165;-86
2021/08/24 06:26:49;;;;;;;;;;;;;;;15.55;100.00;100547.92;1663622;84;21223;-92
2021/08/24 06:29:15;;;;;;;;;;;;;;;15.51;100.00;100553.30;1665220;85;20629;-96
2021/08/24 06:31:44;;;;;;;;;;;;;;;15.53;100.00;100549.95;1648893;85;20141;-93
2021/08/24 06:34:10;;;;;;;;;;;;;;;15.54;100.00;100540.97;1646390;85;20138;-87
2021/08/24 06:36:37;;;;;;;;;;;;;;;15.46;99.61;100550.33;1648737;85;20699;-94
2021/08/24 06:39:07;;;;;;;;;;;;;;;15.46;100.00;100550.33;1652462;85;20561;-88
2021/08/24 06:41:32;;;;;;;;;;;;;;;15.46;100.00;100551.17;1646872;85;20142;-93
2021/08/24 06:43:58;;;;;;;;;;;;;;;15.50;100.00;100544.98;1645753;85;20193;-91
2021/08/24 06:46:24;;;;;;;;;;;;;;;15.40;100.00;100546.05;1648798;85;20122;-88
2021/08/24 06:48:49;;;;;;;;;;;;;;;15.36;100.00;100546.58;1648425;85;20128;-87
2021/08/24 06:51:17;;;;;;;;;;;;;;;15.35;100.00;100551.09;1648503;86;22054;-89
2021/08/24 06:53:42;;;;;;;;;;;;;;;15.41;100.00;100558.84;1647581;85;20166;-88
2021/08/24 06:56:12;;;;;;;;;;;;;;;15.42;100.00;100557.34;1649773;84;20146;-85
2021/08/24 06:58:41;;;;;;;;;;;;;;;15.36;100.00;100563.38;1647207;85;20237;-92
2021/08/24 07:01:06;;;;;;;;;;;;;;;15.43;100.00;100563.00;1644416;85;20295;-87
2021/08/24 07:03:32;;;;;;;;;;;;;;;15.42;99.08;100561.84;1646692;86;21747;-87
2021/08/24 07:05:58;;;;;;;;;;;;;;;15.36;99.44;100558.05;1626845;86;20146;-85
2021/08/24 07:08:24;;;;;;;;;;;;;;;15.40;98.73;100566.02;1648835;85;20133;-88
2021/08/24 07:10:50;;;;;;;;;;;;;;;15.38;98.05;100561.38;1645020;85;20186;-95
2021/08/24 07:13:16;;;;;;;;;;;;;;;15.34;97.53;100571.22;1644605;85;20157;-91
2021/08/24 07:15:42;;;;;;;;;;;;;;;15.35;99.31;100569.72;1648227;86;21174;-92
2021/08/24 07:18:10;;;;;;;;;;;;;;;15.46;97.62;100565.81;1645732;85;20141;-85
2021/08/24 07:20:35;;;;;;;;;;;;;;;15.50;96.55;100571.59;1645523;86;20121;-89
2021/08/24 07:23:01;;;;;;;;;;;;;;;15.42;97.00;100583.95;1645959;85;20780;-86
2021/08/24 07:25:27;;;;;;;;;;;;;;;15.62;95.38;100583.48;1638228;85;20188;-85
2021/08/24 07:27:54;;;;;;;;;;;;;;;15.65;96.43;100585.79;1644233;85;21130;-85
2021/08/24 07:30:21;;;;;;;;;;;;;;;15.53;95.00;100576.57;1643390;85;20141;-88
2021/08/24 07:32:46;;;;;;;;;;;;;;;15.61;95.46;100588.48;1643690;86;20221;-88
2021/08/24 07:35:13;;;;;;;;;;;;;;;15.47;95.92;100585.27;1645016;85;20593;-89
2021/08/24 07:37:39;;;;;;;;;;;;;;;15.45;95.92;100588.10;1642947;85;20225;-91
2021/08/24 07:40:08;;;;;;;;;;;;;;;15.49;96.57;100577.92;1646055;85;21119;-91
2021/08/24 07:42:33;;;;;;;;;;;;;;;15.52;95.50;100581.56;1649864;85;20107;-91
2021/08/24 07:44:59;;;;;;;;;;;;;;;15.54;94.74;100591.03;1641943;85;20157;-89
2021/08/24 07:47:24;;;;;;;;;;;;;;;15.49;96.36;100584.58;1639092;85;20141;-87
2021/08/24 07:49:52;;;;;;;;;;;;;;;15.52;95.29;100590.39;1639884;85;20142;-88
2021/08/24 07:52:18;;;;;;;;;;;;;;;15.57;96.18;100584.02;1644087;85;21152;-85
2021/08/24 07:54:43;;;;;;;;;;;;;;;15.59;95.29;100579.34;1639833;85;20252;-85
2021/08/24 07:57:09;;;;;;;;;;;;;;;15.58;94.15;100591.02;1644171;85;20798;-89
2021/08/24 07:59:34;;;;;;;;;;;;;;;15.51;94.42;100593.23;1621410;86;20161;-84
2021/08/24 08:02:00;;;;;;;;;;;;;;;15.53;95.25;100591.20;1644117;85;20146;-86
2021/08/24 08:04:27;;;;;;;;;;;;;;;15.50;95.06;100584.91;1642512;86;21306;-85
2021/08/24 08:06:54;;;;;;;;;;;;;;;15.49;94.82;100594.73;1646000;86;20483;-92
2021/08/24 08:09:20;;;;;;;;;;;;;;;15.54;94.29;100596.87;1645139;86;20165;-92
2021/08/24 08:11:49;;;;;;;;;;;;;;;15.58;94.11;100593.67;1645168;86;20839;-85
2021/08/24 08:14:18;;;;;;;;;;;;;;;15.60;93.75;100592.16;1644097;86;20202;-87
2021/08/24 08:16:43;;;;;;;;;;;;;;;15.62;94.63;100599.46;1644300;85;21152;-85
2021/08/24 08:19:11;;;;;;;;;;;;;;;15.67;94.19;100602.41;1646656;86;20377;-92
2021/08/24 08:21:37;;;;;;;;;;;;;;;15.63;94.57;100606.45;1644306;85;20201;-87
2021/08/24 08:24:05;;;;;;;;;;;;;;;15.79;92.04;100609.52;1642238;85;20233;-89
2021/08/24 08:26:33;;;;;;;;;;;;;;;15.75;92.38;100603.70;1640833;85;20158;-95
2021/08/24 08:29:02;;;;;;;;;;;;;;;15.70;91.67;100606.56;1626272;86;20886;-86
2021/08/24 08:31:26;;;;;;;;;;;;;;;15.70;91.22;100609.22;1633624;85;20158;-86
2021/08/24 08:33:53;;;;;;;;;;;;;;;15.86;90.57;100616.27;1625727;86;20131;-87
2021/08/24 08:36:23;;;;;;;;;;;;;;;15.84;90.41;100613.78;1622138;86;20212;-91
2021/08/24 08:38:48;;;;;;;;;;;;;;;15.76;90.36;100606.66;1623628;86;20174;-89
2021/08/24 08:41:23;;;;;;;;;;;;;;;15.75;90.61;100613.02;1584714;86;22581;-87
2021/08/24 08:43:59;;;;;;;;;;;;;;;15.84;89.61;100618.30;1619057;86;20153;-90
2021/08/24 08:46:46;;;;;;;;;;;;;;;15.80;90.10;100625.83;1593739;87;20264;-88
2021/08/24 08:49:36;;;;;;;;;;;;;;;15.75;90.31;100622.33;1618439;86;20703;-90
2021/08/24 08:52:14;;;;;;;;;;;;;;;15.76;90.33;100617.31;1619383;86;20158;-85
2021/08/24 08:54:44;;;;;;;;;;;;;;;15.67;90.10;100623.70;1618108;86;21222;-84
2021/08/24 08:57:17;;;;;;;;;;;;;;;15.70;90.04;100627.34;1624180;86;20428;-92
2021/08/24 08:59:54;;;;;;;;;;;;;;;15.77;89.09;100624.34;1620063;86;20484;-86
2021/08/24 09:02:38;;;;;;;;;;;;;;;15.74;88.71;100628.66;1618666;86;20148;-88
2021/08/24 09:05:06;;;;;;;;;;;;;;;15.76;88.66;100619.97;1621905;86;20208;-85
2021/08/24 09:07:41;;;;;;;;;;;;;;;15.84;89.84;100627.62;1593272;86;20205;-87
2021/08/24 09:10:09;;;;;;;;;;;;;;;15.87;88.45;100624.59;1618799;86;20223;-84
2021/08/24 09:12:36;;;;;;;;;;;;;;;15.80;87.54;100624.49;1613398;86;20188;-84
2021/08/24 09:15:02;;;;;;;;;;;;;;;15.82;87.67;100637.59;1622166;86;20226;-89
2021/08/24 09:17:34;;;;;;;;;;;;;;;15.86;87.12;100629.59;1589181;86;20222;-88
2021/08/24 09:20:08;;;;;;;;;;;;;;;15.92;88.23;100632.87;1619945;86;20084;-87
2021/08/24 09:22:35;;;;;;;;;;;;;;;15.99;86.55;100633.81;1590139;86;20228;-84
2021/08/24 09:25:03;;;;;;;;;;;;;;;15.90;87.40;100633.56;1616441;86;20180;-92
2021/08/24 09:27:35;;;;;;;;;;;;;;;15.96;87.07;100636.33;1618153;86;20613;-89
2021/08/24 09:30:03;;;;;;;;;;;;;;;16.03;85.68;100640.42;1620043;86;20221;-86
2021/08/24 09:32:29;;;;;;;;;;;;;;;16.06;84.63;100635.25;1637471;85;21186;-85
2021/08/24 09:35:27;;;;;;;;;;;;;;;16.09;84.37;100638.38;1645362;85;20142;-88
2021/08/24 09:37:53;;;;;;;;;;;;;;;16.12;85.04;100631.34;1624884;86;20178;-85
2021/08/24 09:40:26;;;;;;;;;;;;;;;16.15;84.02;100633.66;1641509;86;20832;-88
2021/08/24 09:42:52;;;;;;;;;;;;;;;16.16;83.26;100633.17;1608680;85;20151;-84
2021/08/24 09:45:24;;;;;;;;;;;;;;;16.21;84.79;100632.63;1645687;86;21032;-89
2021/08/24 09:48:01;;;;;;;;;;;;;;;16.31;81.28;100637.17;1646784;86;20158;-87
2021/08/24 09:50:32;;;;;;;;;;;;;;;16.35;81.17;100634.48;1643380;86;20174;-89
2021/08/24 09:52:57;;;;;;;;;;;;;;;16.30;80.58;100634.20;1645097;85;20205;-90
2021/08/24 09:55:27;;;;;;;;;;;;;;;16.30;82.43;100628.88;1644868;85;20141;-86
2021/08/24 09:57:57;;;;;;;;;;;;;;;16.28;81.08;100633.53;1643733;85;20176;-88
2021/08/24 10:00:33;;;;;;;;;;;;;;;16.31;79.24;100641.17;1620319;86;20555;-89
2021/08/24 10:02:59;;;;;;;;;;;;;;;16.24;78.52;100629.59;1641341;86;20230;-87
2021/08/24 10:05:37;;;;;;;;;;;;;;;16.23;78.96;100635.92;1644432;85;20538;-88
2021/08/24 10:08:09;;;;;;;;;;;;;;;16.23;81.12;100638.59;1643152;86;20214;-84
2021/08/24 10:10:36;;;;;;;;;;;;;;;16.30;79.98;100634.20;1634416;86;21191;-85
2021/08/24 10:13:32;;;;;;;;;;;;;;;16.30;78.15;100640.87;1645558;85;20177;-90
2021/08/24 10:16:11;;;;;;;;;;;;;;;16.26;79.08;100643.05;1642610;85;20198;-92
2021/08/24 10:18:37;;;;;;;;;;;;;;;16.20;77.03;100645.61;1643449;86;20860;-88
2021/08/24 10:21:06;;;;;;;;;;;;;;;16.28;77.59;100648.20;1644414;85;20178;-85
2021/08/24 10:23:40;;;;;;;;;;;;;;;16.28;77.69;100647.71;1641579;85;21857;-87
2021/08/24 10:26:08;;;;;;;;;;;;;;;16.26;76.75;100647.05;1639310;85;20205;-83
2021/08/24 10:28:38;;;;;;;;;;;;;;;16.34;76.37;100646.13;1642697;85;20270;-86
2021/08/24 10:31:33;;;;;;;;;;;;;;;16.39;76.35;100658.92;1613146;85;39350;-88
2021/08/24 10:34:02;;;;;;;;;;;;;;;16.46;74.95;100647.34;1647460;85;20216;-87
2021/08/24 10:36:48;;;;;;;;;;;;;;;16.48;75.01;100648.50;1621139;84;22043;-86
2021/08/24 10:39:26;;;;;;;;;;;;;;;16.51;74.60;100647.64;1625119;85;20163;-84
2021/08/24 10:42:17;;;;;;;;;;;;;;;16.59;75.24;100652.55;1649756;85;20149;-85
2021/08/24 10:44:52;;;;;;;;;;;;;;;16.63;74.36;100649.85;1648136;85;20562;-87
2021/08/24 10:47:24;;;;;;;;;;;;;;;16.55;74.79;100647.28;1650371;85;20235;-86
2021/08/24 10:49:50;;;;;;;;;;;;;;;16.61;73.87;100652.70;1648922;84;21966;-86
2021/08/24 10:52:42;;;;;;;;;;;;;;;16.71;75.41;100648.94;1592290;85;20204;-85
2021/08/24 10:55:14;;;;;;;;;;;;;;;16.71;74.00;100656.41;1646282;86;20222;-85
2021/08/24 10:58:03;;;;;;;;;;;;;;;16.68;74.45;100655.45;1648566;84;20226;-90
2021/08/24 11:00:49;;;;;;;;;;;;;;;16.58;72.50;100658.88;1646282;85;20636;-87
2021/08/24 11:03:24;;;;;;;;;;;;;;;16.66;73.90;100658.81;1648420;85;20574;-87
2021/08/24 11:06:13;;;;;;;;;;;;;;;16.63;73.55;100668.52;1650313;84;20166;-85
2021/08/24 11:09:02;;;;;;;;;;;;;;;16.66;74.58;100657.48;1645797;85;20159;-85
2021/08/24 11:11:56;;;;;;;;;;;;;;;16.67;72.82;100666.63;1646328;85;20233;-83
2021/08/24 11:14:35;;;;;;;;;;;;;;;16.69;73.10;100662.45;1649670;86;20185;-85
2021/08/24 11:17:25;;;;;;;;;;;;;;;16.75;73.69;100672.38;1647909;86;21273;-85
2021/08/24 11:20:08;;;;;;;;;;;;;;;16.78;74.11;100677.35;1650194;85;20201;-84
2021/08/24 11:22:52;;;;;;;;;;;;;;;16.85;73.00;100672.91;1649129;85;20176;-85
2021/08/24 11:25:22;;;;;;;;;;;;;;;16.82;73.00;100673.28;1620260;86;20219;-84
2021/08/24 11:27:58;;;;;;;;;;;;;;;16.94;72.73;100679.54;1646211;85;20535;-85
2021/08/24 11:30:45;;;;;;;;;;;;;;;17.02;72.05;100676.77;1649113;85;22052;-82
2021/08/24 11:33:26;;;;;;;;;;;;;;;17.02;71.93;100689.59;1644529;86;20286;-87
2021/08/24 11:36:01;;;;;;;;;;;;;;;17.05;72.16;100693.73;1646455;85;21069;-85
2021/08/24 11:38:35;;;;;;;;;;;;;;;17.18;73.05;100696.59;1623429;86;20201;-84
2021/08/24 11:41:09;;;;;;;;;;;;;;;17.25;72.81;100700.66;1651376;85;20182;-79
2021/08/24 11:43:50;;;;;;;;;;;;;;;17.31;73.45;100700.41;1651561;85;21384;-84
2021/08/24 11:46:22;;;;;;;;;;;;;;;17.36;72.46;100694.02;1647194;85;20483;-84
2021/08/24 11:48:48;;;;;;;;;;;;;;;17.39;72.36;100713.67;1650150;85;20609;-86
2021/08/24 11:51:22;;;;;;;;;;;;;;;17.41;73.56;100703.11;1650552;85;20204;-85
2021/08/24 11:53:58;;;;;;;;;;;;;;;17.44;72.02;100698.42;1650006;85;20201;-88
2021/08/24 11:56:33;;;;;;;;;;;;;;;17.50;72.23;100705.69;1651717;84;21249;-87
2021/08/24 11:59:03;;;;;;;;;;;;;;;17.54;70.53;100710.46;1648771;85;21028;-85
2021/08/24 12:01:32;;;;;;;;;;;;;;;17.58;70.83;100713.58;1648701;86;20234;-89
2021/08/24 12:04:00;;;;;;;;;;;;;;;17.59;71.04;100712.05;1647757;84;20206;-89
2021/08/24 12:06:48;;;;;;;;;;;;;;;17.58;71.25;100714.39;1623498;86;20221;-88
2021/08/24 12:09:18;;;;;;;;;;;;;;;17.60;70.44;100714.20;1651036;85;21177;-89
2021/08/24 12:11:52;;;;;;;;;;;;;;;17.64;70.50;100712.00;1651951;84;20809;-88
2021/08/24 12:14:37;;;;;;;;;;;;;;;17.61;70.75;100721.21;1651757;84;20173;-88
2021/08/24 12:17:16;;;;;;;;;;;;;;;17.65;70.08;100716.31;1647958;84;20174;-86
2021/08/24 12:20:06;;;;;;;;;;;;;;;17.55;71.06;100709.94;1649342;85;20198;-91
2021/08/24 12:22:43;;;;;;;;;;;;;;;17.54;71.13;100719.81;1652822;85;21213;-86
2021/08/24 12:25:13;;;;;;;;;;;;;;;17.48;68.64;100707.69;1648643;86;20194;-82
2021/08/24 12:27:45;;;;;;;;;;;;;;;17.46;69.54;100709.22;1649733;84;20460;-90
2021/08/24 12:30:17;;;;;;;;;;;;;;;17.54;70.27;100711.80;1620902;85;20202;-85
2021/08/24 12:32:56;;;;;;;;;;;;;;;17.54;70.75;100719.81;1649808;85;20193;-83
2021/08/24 12:35:40;;;;;;;;;;;;;;;17.57;69.80;100711.42;1648614;85;21109;-83
2021/08/24 12:38:06;;;;;;;;;;;;;;;17.64;69.30;100710.67;1646861;84;20134;-82
2021/08/24 12:40:38;;;;;;;;;;;;;;;17.64;68.72;100713.34;1648006;85;20190;-83
2021/08/24 12:43:25;;;;;;;;;;;;;;;17.61;69.08;100723.06;1650134;83;20174;-83
2021/08/24 12:46:09;;;;;;;;;;;;;;;17.64;69.58;100726.69;1689626;81;20194;-82